This is the latest recevied weather packets stored in our database for station/object WX4LTG. If no packets are shown the sender has not sent any weather packets the latest 1 day(s).
| Time | Temp. | Humidity | Pressure | Rain* | Wind** | Luminosity | Snow |
|---|---|---|---|---|---|---|---|
| 1777981706 | 18.33° C | 62% | 1010.6 hPa | 0 mm | 0 m/s | 0 W/m² | - |
| 1777981403 | 18.33° C | 62% | 1010.5 hPa | 0 mm | 0.45 m/s, 107° | 0 W/m² | - |
| 1777981099 | 18.33° C | 61% | 1010.5 hPa | 0 mm | 0.45 m/s, 95° | 0 W/m² | - |
| 1777980795 | 18.89° C | 60% | 1010.4 hPa | 0 mm | 0 m/s | 0 W/m² | - |
| 1777980491 | 18.89° C | 59% | 1010.6 hPa | 0 mm | 0 m/s | 0 W/m² | - |
| 1777980189 | 18.89° C | 58% | 1010.4 hPa | 0 mm | 0 m/s | 0 W/m² | - |
| 1777979884 | 18.89° C | 58% | 1010.6 hPa | 0 mm | 0 m/s | 0 W/m² | - |
| 1777979580 | 18.89° C | 58% | 1010.4 hPa | 0 mm | 1.34 m/s, 105° | 0 W/m² | - |
| 1777979276 | 18.89° C | 58% | 1010.4 hPa | 0 mm | 1.79 m/s, 122° | 0 W/m² | - |
| 1777978974 | 18.89° C | 59% | 1010.4 hPa | 0 mm | 0.45 m/s, 145° | 0 W/m² | - |
| 1777978670 | 18.89° C | 59% | 1010.3 hPa | 0 mm | 0.89 m/s, 124° | 0 W/m² | - |
| 1777978366 | 18.89° C | 58% | 1010.3 hPa | 0 mm | 0.89 m/s, 162° | 0 W/m² | - |
| 1777978063 | 18.89° C | 58% | 1010.5 hPa | 0 mm | 0.89 m/s, 118° | 0 W/m² | - |
| 1777977760 | 18.89° C | 58% | 1010.6 hPa | 0 mm | 1.34 m/s, 130° | 0 W/m² | - |
| 1777977456 | 18.89° C | 58% | 1010.8 hPa | 0 mm | 0 m/s | 0 W/m² | - |
| 1777977154 | 18.89° C | 59% | 1011.2 hPa | 0 mm | 3.13 m/s, 159° | 0 W/m² | - |
| 1777976851 | 18.89° C | 59% | 1011.1 hPa | 0 mm | 2.24 m/s, 119° | 0 W/m² | - |
| 1777976549 | 19.44° C | 59% | 1011.3 hPa | 0 mm | 1.79 m/s, 157° | 0 W/m² | - |
| 1777976248 | 19.44° C | 56% | 1011.3 hPa | 0 mm | 0 m/s | 0 W/m² | - |
| 1777975944 | 19.44° C | 56% | 1011.2 hPa | 0 mm | 0.89 m/s, 118° | 0 W/m² | - |
| 1777975640 | 19.44° C | 56% | 1011.3 hPa | 0 mm | 0 m/s | 0 W/m² | - |
| 1777975337 | 19.44° C | 55% | 1011.2 hPa | 0 mm | 0.89 m/s, 155° | 0 W/m² | - |
| 1777975033 | 19.44° C | 55% | 1011.3 hPa | 0 mm | 0 m/s | 0 W/m² | - |
| 1777974731 | 19.44° C | 55% | 1011.5 hPa | 0 mm | 0 m/s | 0 W/m² | - |
| 1777974426 | 19.44° C | 55% | 1011.4 hPa | 0 mm | 0 m/s | 0 W/m² | - |
* Rain latest hour (hover to see other rain measurements)
** Current wind speed in m/s (hover to see current wind gust speed)